Time;durP1;ratioP1;P1;durP2;ratioP2;P2;SDS_P1;SDS_P2;PMS_P1;PMS_P2;Temp;Humidity;BMP_temperature;BMP_pressure;BME280_temperature;BME280_humidity;BME280_pressure;Samples;Min_cycle;Max_cycle;Signal;HPM_P1;HPM_P2
2021/07/18 00:01:19;;;;;;;19.08;7.45;;;21.80;99.90;;;;;;4840846;29;20245;-86
2021/07/18 00:03:44;;;;;;;17.83;8.23;;;21.80;99.90;;;;;;4842755;29;20221;-86
2021/07/18 00:06:10;;;;;;;17.15;7.68;;;21.80;99.90;;;;;;4841089;29;20194;-86
2021/07/18 00:08:36;;;;;;;19.02;8.48;;;21.70;99.90;;;;;;4826107;29;20215;-86
2021/07/18 00:11:02;;;;;;;19.77;8.05;;;21.70;99.90;;;;;;4840927;29;20191;-86
2021/07/18 00:13:29;;;;;;;21.88;8.48;;;21.70;99.90;;;;;;4826208;29;20222;-86
2021/07/18 00:15:55;;;;;;;27.02;8.57;;;21.70;99.90;;;;;;4842483;29;20218;-86
2021/07/18 00:18:20;;;;;;;14.57;7.70;;;21.60;99.90;;;;;;4842135;29;20685;-86
2021/07/18 00:20:49;;;;;;;18.83;7.35;;;21.60;99.90;;;;;;4810885;29;20229;-86
2021/07/18 00:23:16;;;;;;;19.48;8.13;;;21.60;99.90;;;;;;4840888;29;20235;-87
2021/07/18 00:25:41;;;;;;;21.00;7.50;;;21.60;99.90;;;;;;4842324;29;20241;-87
2021/07/18 00:28:07;;;;;;;20.52;8.02;;;21.50;99.90;;;;;;4825618;29;20218;-87
2021/07/18 00:30:33;;;;;;;25.02;9.18;;;21.50;99.90;;;;;;4841555;29;20187;-87
2021/07/18 00:32:58;;;;;;;18.63;8.32;;;21.50;99.90;;;;;;4840896;29;20213;-87
2021/07/18 00:35:24;;;;;;;17.00;7.68;;;21.50;99.90;;;;;;4841126;29;20657;-87
2021/07/18 00:37:50;;;;;;;21.55;9.05;;;21.50;99.90;;;;;;4825662;29;20231;-87
2021/07/18 00:40:15;;;;;;;20.52;8.25;;;21.50;99.90;;;;;;4841724;29;20274;-87
2021/07/18 00:42:41;;;;;;;17.70;8.73;;;21.50;99.90;;;;;;4840953;29;20546;-87
2021/07/18 00:45:08;;;;;;;31.77;9.73;;;21.40;99.90;;;;;;4825563;29;20199;-87
2021/07/18 00:47:40;;;;;;;20.45;9.15;;;21.40;99.90;;;;;;4842062;29;20173;-87
2021/07/18 00:50:09;;;;;;;23.75;9.27;;;21.40;99.90;;;;;;4825074;29;20596;-87
2021/07/18 00:52:35;;;;;;;18.40;8.38;;;21.40;99.90;;;;;;4840769;29;20179;-87
2021/07/18 00:55:01;;;;;;;19.20;7.93;;;21.40;99.90;;;;;;4825445;29;20526;-87
2021/07/18 00:57:27;;;;;;;25.73;8.95;;;21.30;99.90;;;;;;4840812;29;20191;-87
2021/07/18 00:59:53;;;;;;;17.88;8.13;;;21.30;99.90;;;;;;4825963;29;20287;-86
2021/07/18 01:02:19;;;;;;;29.38;9.57;;;21.30;99.90;;;;;;4841476;29;20235;-86
2021/07/18 01:04:45;;;;;;;24.75;9.93;;;21.20;99.90;;;;;;4825485;29;20255;-86
2021/07/18 01:07:10;;;;;;;20.98;10.27;;;21.20;99.90;;;;;;4840162;29;20274;-86
2021/07/18 01:09:36;;;;;;;23.25;8.70;;;21.20;99.90;;;;;;4840819;29;20302;-87
2021/07/18 01:12:03;;;;;;;19.55;8.90;;;21.20;99.90;;;;;;4841683;29;20589;-86
2021/07/18 01:14:29;;;;;;;30.40;9.15;;;21.20;99.90;;;;;;4842150;29;20184;-86
2021/07/18 01:16:59;;;;;;;21.55;10.05;;;21.20;99.90;;;;;;4841909;29;20270;-86
2021/07/18 01:19:25;;;;;;;18.90;8.65;;;21.10;99.90;;;;;;4841777;29;20239;-86
2021/07/18 01:22:09;;;;;;;19.42;8.45;;;21.10;99.90;;;;;;4840532;29;20183;-86
2021/07/18 01:24:35;;;;;;;24.92;9.63;;;21.00;99.90;;;;;;4834902;29;20680;-86
2021/07/18 01:27:03;;;;;;;34.88;8.95;;;21.00;99.90;;;;;;4840648;29;20188;-86
2021/07/18 01:29:30;;;;;;;20.30;8.30;;;20.90;99.90;;;;;;4827292;29;20578;-86
2021/07/18 01:31:56;;;;;;;20.13;9.07;;;20.90;99.90;;;;;;4843982;29;20191;-86
2021/07/18 01:34:22;;;;;;;15.77;8.70;;;20.90;99.90;;;;;;4843720;29;20188;-87
2021/07/18 01:36:48;;;;;;;20.08;8.90;;;20.90;99.90;;;;;;4845165;29;20199;-87
2021/07/18 01:39:14;;;;;;;21.02;9.98;;;20.90;99.90;;;;;;4844779;29;20669;-86
2021/07/18 01:41:40;;;;;;;24.80;8.90;;;20.90;99.90;;;;;;4845045;29;20275;-86
2021/07/18 01:44:08;;;;;;;30.30;9.93;;;20.80;99.90;;;;;;4844943;29;20690;-86
2021/07/18 01:46:35;;;;;;;29.58;8.98;;;20.80;99.90;;;;;;4844950;29;20192;-87
2021/07/18 01:49:03;;;;;;;20.00;9.27;;;20.80;99.90;;;;;;4843427;29;20211;-87
2021/07/18 01:51:29;;;;;;;21.48;9.35;;;20.80;99.90;;;;;;4843849;29;20191;-87
2021/07/18 01:53:56;;;;;;;22.83;9.73;;;20.80;99.90;;;;;;4843687;29;20190;-87
2021/07/18 01:56:23;;;;;;;20.23;9.55;;;20.70;99.90;;;;;;4843262;29;20180;-87
2021/07/18 01:58:50;;;;;;;26.92;9.43;;;20.70;99.90;;;;;;4844812;29;20270;-87
2021/07/18 02:01:17;;;;;;;21.70;9.20;;;20.70;99.90;;;;;;4844334;29;20231;-87
2021/07/18 02:03:43;;;;;;;28.05;9.88;;;20.70;99.90;;;;;;4844679;29;20187;-87
2021/07/18 02:06:09;;;;;;;28.50;9.85;;;20.70;99.90;;;;;;4812873;29;20195;-87
2021/07/18 02:08:35;;;;;;;22.08;9.90;;;20.70;99.90;;;;;;4828082;29;20214;-87
2021/07/18 02:11:00;;;;;;;22.02;9.07;;;20.70;99.90;;;;;;4843372;29;20270;-87
2021/07/18 02:13:26;;;;;;;20.38;9.00;;;20.70;99.90;;;;;;4842975;29;20551;-87
2021/07/18 02:15:52;;;;;;;22.17;9.82;;;20.70;99.90;;;;;;4843203;29;20188;-87
2021/07/18 02:18:17;;;;;;;16.77;9.98;;;20.70;99.90;;;;;;4842862;29;20657;-87
2021/07/18 02:20:43;;;;;;;20.25;8.93;;;20.70;99.90;;;;;;4843295;29;20270;-87
2021/07/18 02:23:09;;;;;;;30.10;10.38;;;20.60;99.90;;;;;;4843053;29;20180;-86
2021/07/18 02:25:34;;;;;;;21.95;10.20;;;20.60;99.90;;;;;;4844306;29;20187;-87
2021/07/18 02:28:00;;;;;;;20.15;10.00;;;20.60;99.90;;;;;;4843427;29;20194;-87
2021/07/18 02:30:27;;;;;;;23.00;9.70;;;20.60;99.90;;;;;;4843829;29;20717;-87
2021/07/18 02:32:53;;;;;;;18.38;10.10;;;20.60;99.90;;;;;;4843167;29;20255;-87
2021/07/18 02:35:21;;;;;;;18.90;9.60;;;20.50;99.90;;;;;;4843989;29;20183;-88
2021/07/18 02:37:47;;;;;;;22.20;9.50;;;20.50;99.90;;;;;;4827231;29;20699;-88
2021/07/18 02:40:15;;;;;;;23.13;10.38;;;20.50;99.90;;;;;;4842695;29;20235;-89
2021/07/18 02:42:40;;;;;;;19.25;10.18;;;20.50;99.90;;;;;;4844038;29;20235;-88
2021/07/18 02:45:08;;;;;;;26.27;11.45;;;20.50;99.90;;;;;;4827368;29;20191;-88
2021/07/18 02:47:34;;;;;;;30.75;10.27;;;20.40;99.90;;;;;;4826829;29;20191;-89
2021/07/18 02:50:01;;;;;;;18.52;10.85;;;20.40;99.90;;;;;;4842738;29;20341;-89
2021/07/18 02:52:26;;;;;;;20.88;10.65;;;20.40;99.90;;;;;;4843537;29;20188;-88
2021/07/18 02:54:54;;;;;;;23.58;10.25;;;20.40;99.90;;;;;;4827673;29;20199;-88
2021/07/18 02:57:20;;;;;;;24.27;11.13;;;20.40;99.90;;;;;;4842264;29;20179;-88
2021/07/18 02:59:45;;;;;;;26.40;10.57;;;20.30;99.90;;;;;;4842365;29;20658;-89
2021/07/18 03:02:11;;;;;;;27.70;10.75;;;20.30;99.90;;;;;;4842425;29;20234;-87
2021/07/18 03:04:37;;;;;;;21.50;10.88;;;20.30;99.90;;;;;;4842309;29;20194;-87
2021/07/18 03:07:02;;;;;;;24.73;10.32;;;20.30;99.90;;;;;;4842401;29;20608;-88
2021/07/18 03:09:28;;;;;;;25.40;11.25;;;20.30;99.90;;;;;;4841786;29;20314;-88
2021/07/18 03:11:54;;;;;;;26.40;10.60;;;20.40;99.90;;;;;;4843589;29;20538;-88
2021/07/18 03:14:20;;;;;;;21.80;9.52;;;20.40;99.90;;;;;;4826564;29;20194;-88
2021/07/18 03:16:49;;;;;;;32.40;10.90;;;20.40;99.90;;;;;;4842158;29;20244;-88
2021/07/18 03:19:16;;;;;;;29.90;10.95;;;20.40;99.90;;;;;;4826752;29;20274;-86
2021/07/18 03:21:42;;;;;;;24.70;11.10;;;20.50;99.90;;;;;;4826994;29;20195;-89
2021/07/18 03:24:08;;;;;;;20.55;10.88;;;20.50;99.90;;;;;;4843389;29;20266;-87
2021/07/18 03:26:34;;;;;;;28.65;10.98;;;20.50;99.90;;;;;;4841743;29;20214;-87
2021/07/18 03:29:00;;;;;;;24.50;11.52;;;20.50;99.90;;;;;;4841785;29;20268;-88
2021/07/18 03:31:25;;;;;;;24.40;9.95;;;20.50;99.90;;;;;;4826739;29;20187;-88
2021/07/18 03:33:51;;;;;;;34.78;10.77;;;20.60;99.90;;;;;;4841946;29;20259;-88
2021/07/18 03:36:17;;;;;;;29.73;11.20;;;20.60;99.90;;;;;;4826365;29;20187;-87
2021/07/18 03:38:42;;;;;;;24.63;11.00;;;20.70;99.90;;;;;;4842079;29;20191;-88
2021/07/18 03:41:08;;;;;;;21.92;11.23;;;20.70;99.90;;;;;;4841797;29;20549;-88
2021/07/18 03:43:34;;;;;;;28.52;11.50;;;20.70;99.90;;;;;;4826378;29;20239;-88
2021/07/18 03:45:59;;;;;;;22.95;10.45;;;20.80;99.90;;;;;;4842989;29;20282;-88
2021/07/18 03:48:25;;;;;;;21.05;11.27;;;20.80;99.90;;;;;;4826005;29;20215;-87
2021/07/18 03:50:51;;;;;;;26.48;11.50;;;20.90;99.90;;;;;;4841426;29;20202;-87
2021/07/18 03:53:17;;;;;;;30.08;10.05;;;21.00;99.90;;;;;;4811275;29;20199;-88
2021/07/18 03:55:43;;;;;;;24.23;11.02;;;21.00;99.90;;;;;;4842348;29;20279;-88
2021/07/18 03:58:09;;;;;;;28.60;10.55;;;21.00;99.90;;;;;;4842570;29;20179;-88
2021/07/18 04:00:34;;;;;;;28.27;11.45;;;21.10;99.90;;;;;;4842309;29;20187;-87
2021/07/18 04:03:00;;;;;;;29.95;10.98;;;21.10;99.90;;;;;;4842763;29;20231;-88
2021/07/18 04:05:26;;;;;;;22.20;10.80;;;21.20;99.90;;;;;;4842647;29;20215;-88
2021/07/18 04:07:52;;;;;;;27.17;10.95;;;21.20;99.90;;;;;;4842816;29;20187;-89
2021/07/18 04:10:17;;;;;;;29.67;10.65;;;21.30;99.90;;;;;;4826178;29;20234;-88
2021/07/18 04:12:43;;;;;;;22.90;11.38;;;21.30;99.90;;;;;;4841132;29;20183;-88
2021/07/18 04:15:09;;;;;;;31.45;11.45;;;21.40;99.90;;;;;;4826283;29;20191;-88
2021/07/18 04:17:35;;;;;;;25.23;11.93;;;21.40;99.90;;;;;;4842124;29;20213;-88
2021/07/18 04:20:01;;;;;;;26.48;11.48;;;21.50;99.90;;;;;;4842263;29;20712;-88
2021/07/18 04:22:26;;;;;;;29.98;12.27;;;21.50;99.90;;;;;;4825810;29;20195;-89
2021/07/18 04:24:52;;;;;;;29.25;11.77;;;21.50;99.90;;;;;;4826410;29;20649;-89
2021/07/18 04:27:18;;;;;;;28.83;11.98;;;21.60;99.90;;;;;;4841104;29;20633;-89
2021/07/18 04:29:43;;;;;;;35.22;13.80;;;21.70;99.90;;;;;;4842094;29;20736;-89
2021/07/18 04:32:09;;;;;;;30.67;12.77;;;21.70;99.90;;;;;;4841281;29;20664;-88
2021/07/18 04:34:35;;;;;;;27.17;12.45;;;21.80;99.90;;;;;;4825778;29;20183;-88
2021/07/18 04:37:01;;;;;;;36.45;14.48;;;21.90;99.90;;;;;;4825955;29;20191;-88
2021/07/18 04:39:27;;;;;;;36.65;12.57;;;21.90;99.90;;;;;;4840692;29;20371;-88
2021/07/18 04:41:53;;;;;;;28.15;12.02;;;21.90;99.90;;;;;;4825609;29;20195;-88
2021/07/18 04:44:19;;;;;;;25.60;11.98;;;;;;;;;;4826147;29;20195;-88
2021/07/18 04:46:45;;;;;;;35.00;12.93;;;22.00;99.90;;;;;;4840653;29;20187;-88
2021/07/18 04:49:10;;;;;;;33.17;13.30;;;22.00;99.90;;;;;;4825785;29;20219;-88
2021/07/18 04:51:37;;;;;;;32.35;13.43;;;22.10;99.90;;;;;;4840723;29;20333;-88
2021/07/18 04:54:03;;;;;;;40.58;13.45;;;22.10;99.90;;;;;;4825546;29;20187;-88
2021/07/18 04:56:28;;;;;;;33.10;13.77;;;22.20;99.90;;;;;;4840692;29;20198;-89
2021/07/18 04:58:54;;;;;;;32.80;12.30;;;22.20;99.90;;;;;;4841115;29;20521;-88
2021/07/18 05:01:19;;;;;;;39.33;13.57;;;22.30;99.90;;;;;;4842043;29;20696;-88
2021/07/18 05:03:45;;;;;;;27.60;12.55;;;22.40;99.90;;;;;;4841809;29;20183;-89
2021/07/18 05:06:11;;;;;;;31.95;13.45;;;22.50;99.90;;;;;;4844591;29;20187;-89
2021/07/18 05:08:36;;;;;;;34.53;13.10;;;22.50;99.90;;;;;;4845115;29;20226;-89
2021/07/18 05:11:03;;;;;;;23.40;11.50;;;22.60;99.90;;;;;;4828874;29;20187;-89
2021/07/18 05:13:29;;;;;;;24.98;12.27;;;22.60;99.90;;;;;;4845306;29;20641;-88
2021/07/18 05:15:54;;;;;;;26.30;11.82;;;22.70;99.90;;;;;;4829168;29;20191;-89
2021/07/18 05:18:20;;;;;;;24.92;11.98;;;22.70;99.90;;;;;;4845800;29;20270;-89
2021/07/18 05:20:46;;;;;;;37.95;11.65;;;22.90;99.90;;;;;;4845083;29;20571;-89
2021/07/18 05:23:12;;;;;;;24.20;11.80;;;22.90;99.90;;;;;;4828938;29;20649;-89
2021/07/18 05:25:38;;;;;;;28.90;11.77;;;23.00;99.90;;;;;;4845472;29;20191;-89
2021/07/18 05:28:04;;;;;;;29.50;12.50;;;23.00;99.90;;;;;;4845604;29;20605;-89
2021/07/18 05:30:30;;;;;;;28.02;12.65;;;23.10;99.90;;;;;;4828509;29;20199;-88
2021/07/18 05:32:57;;;;;;;27.30;11.40;;;23.10;99.90;;;;;;4828996;29;20191;-89
2021/07/18 05:35:23;;;;;;;29.27;11.68;;;23.20;99.90;;;;;;4843595;29;20278;-90
2021/07/18 05:37:50;;;;;;;27.25;11.70;;;23.10;99.90;;;;;;4813261;29;20188;-88
2021/07/18 05:40:16;;;;;;;31.70;12.07;;;23.20;99.90;;;;;;4843738;29;20278;-88
2021/07/18 05:42:41;;;;;;;28.08;11.68;;;23.20;99.90;;;;;;4845438;29;20343;-91
2021/07/18 05:45:08;;;;;;;24.63;12.23;;;23.20;99.90;;;;;;4839438;29;20183;-93
2021/07/18 05:47:35;;;;;;;29.40;11.65;;;23.30;99.90;;;;;;4844498;29;20187;-90
2021/07/18 05:50:02;;;;;;;31.17;12.52;;;23.30;99.90;;;;;;4852653;29;20218;-90
2021/07/18 05:52:28;;;;;;;30.90;12.80;;;;;;;;;;4853299;29;20652;-90
2021/07/18 05:54:55;;;;;;;36.92;12.90;;;23.30;99.90;;;;;;4852014;29;20572;-89
2021/07/18 05:57:21;;;;;;;27.77;12.15;;;23.40;99.90;;;;;;4851429;29;20281;-89
2021/07/18 05:59:48;;;;;;;29.33;11.73;;;23.40;99.90;;;;;;4830324;29;20227;-90
2021/07/18 06:02:15;;;;;;;28.98;12.60;;;23.50;99.90;;;;;;4844416;29;20295;-90
2021/07/18 06:04:41;;;;;;;25.55;11.73;;;23.40;99.90;;;;;;4844925;29;20183;-91
2021/07/18 06:07:07;;;;;;;32.30;11.70;;;23.50;99.90;;;;;;4846260;29;20657;-89
2021/07/18 06:09:33;;;;;;;32.17;12.20;;;23.60;99.90;;;;;;4846312;29;20235;-90
2021/07/18 06:11:59;;;;;;;33.60;13.05;;;23.60;99.90;;;;;;4830815;29;20186;-89
2021/07/18 06:14:24;;;;;;;28.52;11.90;;;23.60;99.90;;;;;;4846026;29;20190;-88
2021/07/18 06:16:50;;;;;;;34.25;12.00;;;23.60;99.90;;;;;;4843350;29;20641;-88
2021/07/18 06:19:16;;;;;;;24.25;11.98;;;23.60;99.90;;;;;;4842103;29;20191;-88
2021/07/18 06:21:41;;;;;;;32.17;12.07;;;23.70;99.90;;;;;;4844446;29;20195;-87
2021/07/18 06:24:07;;;;;;;28.80;11.60;;;23.80;99.90;;;;;;4827584;29;20537;-88
2021/07/18 06:26:33;;;;;;;29.27;11.35;;;23.90;99.90;;;;;;4827776;29;20537;-87
2021/07/18 06:29:00;;;;;;;30.25;11.85;;;24.00;99.90;;;;;;4842963;29;20685;-89
2021/07/18 06:31:26;;;;;;;26.65;10.93;;;24.00;99.90;;;;;;4844037;29;20588;-91
2021/07/18 06:33:52;;;;;;;25.73;11.27;;;23.90;99.90;;;;;;4842826;29;20179;-90
2021/07/18 06:36:18;;;;;;;29.35;11.45;;;23.80;99.90;;;;;;4827302;29;20668;-88
2021/07/18 06:38:44;;;;;;;25.60;11.10;;;23.90;99.90;;;;;;4827289;29;20187;-89
2021/07/18 06:41:09;;;;;;;27.10;11.15;;;23.80;99.90;;;;;;4845571;29;20217;-91
2021/07/18 06:43:35;;;;;;;29.77;10.80;;;23.80;99.90;;;;;;4830518;29;20182;-88
2021/07/18 06:46:01;;;;;;;29.02;10.35;;;;;;;;;;4845721;29;20191;-89
2021/07/18 06:48:27;;;;;;;21.63;11.23;;;;;;;;;;4862325;29;20680;-89
2021/07/18 06:50:53;;;;;;;31.30;11.45;;;23.70;99.90;;;;;;4843262;29;20194;-89
2021/07/18 06:53:18;;;;;;;20.83;10.40;;;23.70;99.90;;;;;;4858097;29;20205;-88
2021/07/18 06:55:44;;;;;;;29.27;11.23;;;23.80;99.90;;;;;;4847195;29;20528;-91
2021/07/18 06:58:10;;;;;;;26.45;10.63;;;24.00;99.90;;;;;;4845616;29;20656;-89
2021/07/18 07:00:36;;;;;;;23.40;11.25;;;24.10;99.90;;;;;;4830073;29;20614;-90
2021/07/18 07:03:02;;;;;;;24.65;10.35;;;24.20;99.90;;;;;;4829697;29;20286;-89
2021/07/18 07:05:28;;;;;;;22.75;11.35;;;24.40;99.90;;;;;;4862024;29;20175;-89
2021/07/18 07:07:53;;;;;;;32.42;11.50;;;24.50;99.90;;;;;;4847589;29;20331;-90
2021/07/18 07:10:20;;;;;;;22.40;10.30;;;24.70;99.90;;;;;;4843128;29;20317;-92
2021/07/18 07:12:47;;;;;;;21.85;10.32;;;24.80;99.90;;;;;;4845688;29;20183;-91
2021/07/18 07:15:13;;;;;;;37.03;12.80;;;25.00;99.90;;;;;;4846901;29;20184;-89
2021/07/18 07:17:39;;;;;;;23.80;12.98;;;25.00;99.90;;;;;;4844089;29;20190;-90
2021/07/18 07:20:10;;;;;;;25.50;9.65;;;25.10;99.90;;;;;;4851719;29;20195;-91
2021/07/18 07:22:36;;;;;;;22.65;9.45;;;25.10;99.90;;;;;;4834421;29;20217;-89
2021/07/18 07:25:07;;;;;;;24.20;10.48;;;25.20;99.90;;;;;;4852826;29;20648;-88
2021/07/18 07:27:33;;;;;;;25.85;10.52;;;25.30;99.90;;;;;;4843246;29;20191;-88
2021/07/18 07:29:58;;;;;;;25.35;10.77;;;25.50;99.90;;;;;;4850856;29;20221;-88
2021/07/18 07:32:24;;;;;;;22.05;10.27;;;25.60;99.90;;;;;;4852184;29;20187;-89
2021/07/18 07:34:50;;;;;;;28.45;10.10;;;25.60;99.90;;;;;;4852075;29;20183;-89
2021/07/18 07:37:16;;;;;;;21.23;9.07;;;25.70;99.90;;;;;;4834060;29;20187;-86
2021/07/18 07:39:41;;;;;;;21.98;8.50;;;25.80;99.90;;;;;;4841310;29;20716;-88
2021/07/18 07:42:07;;;;;;;23.50;9.38;;;25.90;99.90;;;;;;4851338;29;20195;-86
2021/07/18 07:44:33;;;;;;;32.17;9.38;;;25.90;99.90;;;;;;4851064;29;20193;-89
2021/07/18 07:46:59;;;;;;;24.50;9.38;;;26.00;99.90;;;;;;4852491;29;20187;-86
2021/07/18 07:49:25;;;;;;;19.35;9.68;;;26.10;99.90;;;;;;4826947;29;20681;-87
2021/07/18 07:51:50;;;;;;;23.98;8.65;;;26.20;99.90;;;;;;4824138;29;20305;-90
2021/07/18 07:54:16;;;;;;;26.70;9.40;;;26.20;99.90;;;;;;4844870;29;20253;-88
2021/07/18 07:56:42;;;;;;;22.50;8.35;;;26.30;99.90;;;;;;4861368;29;20182;-89
2021/07/18 07:59:07;;;;;;;22.95;8.38;;;26.40;99.90;;;;;;4860836;29;20225;-89
2021/07/18 08:01:33;;;;;;;18.33;8.93;;;26.50;99.90;;;;;;4829091;29;20731;-88
2021/07/18 08:03:59;;;;;;;20.08;7.97;;;26.60;99.90;;;;;;4826331;29;20194;-88
2021/07/18 08:06:27;;;;;;;25.05;8.63;;;26.80;99.90;;;;;;4821808;29;20195;-89
2021/07/18 08:08:53;;;;;;;19.80;8.40;;;26.80;99.90;;;;;;4850333;29;20211;-88
2021/07/18 08:11:18;;;;;;;22.90;7.97;;;26.80;99.90;;;;;;4851862;29;20304;-89
2021/07/18 08:13:44;;;;;;;19.98;8.13;;;26.90;99.90;;;;;;4837486;29;20316;-90
2021/07/18 08:16:10;;;;;;;18.42;8.32;;;27.00;99.90;;;;;;4833363;29;20197;-88
2021/07/18 08:18:37;;;;;;;17.75;7.90;;;27.10;99.90;;;;;;4807193;29;20201;-89
2021/07/18 08:21:03;;;;;;;19.02;7.90;;;27.10;99.90;;;;;;4841835;29;20191;-88
2021/07/18 08:23:31;;;;;;;29.17;8.40;;;27.20;99.90;;;;;;4852200;29;20278;-89
2021/07/18 08:25:58;;;;;;;17.60;8.38;;;27.20;99.90;;;;;;4830999;29;20194;-90
2021/07/18 08:28:24;;;;;;;22.38;9.32;;;27.60;99.90;;;;;;4828088;29;20218;-90
2021/07/18 08:30:50;;;;;;;17.75;8.15;;;27.40;99.90;;;;;;4827946;29;20180;-86
2021/07/18 08:33:16;;;;;;;26.15;8.82;;;27.60;99.90;;;;;;4841287;29;20187;-88
2021/07/18 08:35:42;;;;;;;24.52;9.05;;;27.70;99.90;;;;;;4830959;29;20266;-88
2021/07/18 08:38:11;;;;;;;22.77;9.20;;;27.90;99.90;;;;;;4840313;29;20218;-89
2021/07/18 08:40:37;;;;;;;21.35;8.52;;;27.90;99.90;;;;;;4850957;29;20191;-87
2021/07/18 08:43:06;;;;;;;21.92;9.38;;;27.90;99.90;;;;;;4845753;29;20179;-88
2021/07/18 08:45:32;;;;;;;17.58;8.57;;;27.90;99.90;;;;;;4844119;29;20187;-87
2021/07/18 08:47:58;;;;;;;17.20;7.93;;;28.00;99.90;;;;;;4835607;29;20199;-84
2021/07/18 08:50:24;;;;;;;24.27;9.45;;;28.10;99.90;;;;;;4853194;29;20218;-87
2021/07/18 08:52:55;;;;;;;19.60;8.80;;;28.20;99.90;;;;;;4833433;29;20235;-88
2021/07/18 08:55:22;;;;;;;21.73;8.93;;;28.40;99.90;;;;;;4827147;29;20270;-87
2021/07/18 08:57:49;;;;;;;20.80;9.18;;;28.40;99.90;;;;;;4856725;29;20187;-88
2021/07/18 09:00:15;;;;;;;19.80;8.85;;;28.50;99.90;;;;;;4841578;29;20282;-87
2021/07/18 09:02:42;;;;;;;26.85;11.07;;;28.50;99.90;;;;;;4841814;29;20759;-87
2021/07/18 09:05:08;;;;;;;17.45;8.63;;;28.40;99.90;;;;;;4849439;29;20182;-88
2021/07/18 09:07:55;;;;;;;14.90;8.88;;;28.50;99.90;;;;;;4827504;29;20178;-87
2021/07/18 09:10:24;;;;;;;19.63;9.20;;;28.60;99.90;;;;;;4848632;29;20214;-87
2021/07/18 09:13:02;;;;;;;20.20;9.25;;;28.70;99.90;;;;;;4839384;29;20247;-88
2021/07/18 09:15:48;;;;;;;18.73;8.70;;;28.80;99.90;;;;;;4838883;29;20179;-88
2021/07/18 09:18:25;;;;;;;18.88;8.85;;;28.80;99.90;;;;;;4847159;29;20661;-90
2021/07/18 09:20:57;;;;;;;24.67;9.70;;;28.80;99.90;;;;;;4851023;29;20170;-88
2021/07/18 09:23:28;;;;;;;20.85;8.63;;;28.90;99.90;;;;;;4853155;29;20266;-89
2021/07/18 09:26:22;;;;;;;22.30;9.70;;;29.00;99.90;;;;;;4851756;29;20183;-89
2021/07/18 09:28:51;;;;;;;24.15;10.40;;;31.70;99.90;;;;;;4836030;29;20226;-90
2021/07/18 09:31:34;;;;;;;19.77;8.98;;;29.60;99.90;;;;;;4828075;29;20198;-90
2021/07/18 09:34:16;;;;;;;28.13;10.10;;;29.10;99.90;;;;;;4842750;29;20541;-89
2021/07/18 09:36:42;;;;;;;23.67;9.35;;;;;;;;;;4837085;29;20212;-90
2021/07/18 09:39:13;;;;;;;15.55;8.43;;;29.20;99.90;;;;;;4844210;29;20615;-89
2021/07/18 09:41:41;;;;;;;21.45;9.85;;;29.40;99.90;;;;;;4825489;29;20418;-90
2021/07/18 09:44:07;;;;;;;21.02;9.40;;;29.30;99.90;;;;;;4826462;29;20218;-89
2021/07/18 09:46:34;;;;;;;21.27;8.82;;;29.30;99.90;;;;;;4840501;29;20675;-90
2021/07/18 09:49:03;;;;;;;15.95;9.43;;;29.40;99.90;;;;;;4839410;29;20247;-89
2021/07/18 09:51:31;;;;;;;22.25;9.95;;;29.40;99.90;;;;;;4844932;29;20728;-90
2021/07/18 09:54:19;;;;;;;19.30;10.18;;;29.50;99.90;;;;;;4852368;29;20187;-89
2021/07/18 09:56:45;;;;;;;20.98;10.15;;;29.50;99.90;;;;;;4857335;29;20179;-90
2021/07/18 09:59:10;;;;;;;17.38;9.75;;;29.60;99.90;;;;;;4849489;29;20187;-88
2021/07/18 10:01:36;;;;;;;18.65;10.00;;;29.60;99.90;;;;;;4851775;29;20278;-89
2021/07/18 10:04:03;;;;;;;18.33;9.93;;;29.60;99.90;;;;;;4851183;29;20182;-90
2021/07/18 10:06:30;;;;;;;14.43;8.25;;;29.70;99.90;;;;;;4828642;29;20187;-89
2021/07/18 10:09:09;;;;;;;19.23;8.65;;;29.90;99.90;;;;;;4837494;29;20195;-92
2021/07/18 10:11:36;;;;;;;16.88;10.15;;;29.90;99.90;;;;;;4850127;29;20235;-91
2021/07/18 10:14:02;;;;;;;18.90;9.48;;;29.90;99.90;;;;;;4843880;29;20187;-90
2021/07/18 10:16:31;;;;;;;15.35;9.80;;;30.00;99.90;;;;;;4851765;29;20195;-89
2021/07/18 10:18:57;;;;;;;15.38;8.35;;;30.00;99.90;;;;;;4851497;29;20178;-91
2021/07/18 10:21:26;;;;;;;15.65;9.45;;;30.00;99.90;;;;;;4836284;29;20193;-90
2021/07/18 10:23:53;;;;;;;15.18;9.05;;;30.20;99.90;;;;;;4852042;29;20184;-91
2021/07/18 10:26:29;;;;;;;15.32;8.90;;;30.20;99.90;;;;;;4858070;29;20190;-91
2021/07/18 10:28:56;;;;;;;18.58;8.77;;;;;;;;;;4857638;29;20691;-94
2021/07/18 10:31:41;;;;;;;18.50;10.38;;;30.30;99.90;;;;;;4857494;29;20179;-90
2021/07/18 10:34:08;;;;;;;22.35;8.85;;;30.40;99.90;;;;;;4851337;29;20183;-92
2021/07/18 10:36:35;;;;;;;18.98;10.23;;;30.30;99.90;;;;;;4837445;29;20186;-90
2021/07/18 10:39:21;;;;;;;12.20;7.38;;;30.40;99.90;;;;;;4840226;29;20656;-90
2021/07/18 10:41:46;;;;;;;13.30;7.75;;;30.40;99.90;;;;;;4843193;29;20652;-91
2021/07/18 10:44:17;;;;;;;17.95;8.77;;;30.40;99.90;;;;;;4849029;29;20235;-89
2021/07/18 10:46:46;;;;;;;15.85;8.68;;;30.50;99.90;;;;;;4837075;29;20223;-89
2021/07/18 10:49:14;;;;;;;12.77;8.35;;;30.40;99.90;;;;;;4852174;29;20214;-88
2021/07/18 10:51:41;;;;;;;14.95;8.65;;;30.40;99.90;;;;;;4854059;29;20179;-90
2021/07/18 10:54:38;;;;;;;16.10;8.95;;;30.40;99.90;;;;;;4836026;29;20206;-90
2021/07/18 10:57:33;;;;;;;15.25;7.50;;;30.50;99.90;;;;;;4852829;29;20209;-92
2021/07/18 11:00:54;;;;;;;17.27;8.57;;;30.70;99.90;;;;;;4846926;29;20187;-89
2021/07/18 11:03:33;;;;;;;14.23;8.32;;;30.60;99.90;;;;;;4823384;29;20686;-90
2021/07/18 11:06:23;;;;;;;20.90;8.02;;;30.80;99.90;;;;;;4833259;29;20187;-90
2021/07/18 11:09:26;;;;;;;18.83;7.85;;;30.70;99.90;;;;;;4829940;29;20227;-92
2021/07/18 11:11:57;;;;;;;13.88;7.85;;;30.90;99.90;;;;;;4814906;29;20192;-91
2021/07/18 11:14:36;;;;;;;18.85;8.00;;;30.80;99.90;;;;;;4828275;29;20539;-92
2021/07/18 11:17:07;;;;;;;15.77;8.50;;;31.10;99.90;;;;;;4839258;29;20642;-94
2021/07/18 11:19:38;;;;;;;11.27;7.40;;;30.80;99.90;;;;;;4819832;29;20604;-91
2021/07/18 11:22:14;;;;;;;12.85;7.85;;;30.80;99.90;;;;;;4826291;29;20211;-92
2021/07/18 11:24:56;;;;;;;26.15;8.65;;;30.90;99.90;;;;;;4823614;29;20652;-90
2021/07/18 11:27:33;;;;;;;14.80;8.35;;;31.10;99.90;;;;;;4840423;29;20189;-91
2021/07/18 11:30:03;;;;;;;12.07;7.68;;;31.40;99.90;;;;;;4830545;29;20225;-92
2021/07/18 11:32:30;;;;;;;19.27;8.30;;;31.50;99.90;;;;;;4818526;29;20198;-93
2021/07/18 11:34:58;;;;;;;14.23;7.95;;;31.20;99.90;;;;;;4816787;29;20184;-93
2021/07/18 11:37:26;;;;;;;12.52;7.50;;;31.00;99.90;;;;;;4809210;29;20248;-91
2021/07/18 11:39:59;;;;;;;15.10;7.65;;;30.80;99.90;;;;;;4833799;29;20195;-89
2021/07/18 11:42:26;;;;;;;17.90;7.82;;;30.60;99.90;;;;;;4835688;29;20685;-91
2021/07/18 11:44:52;;;;;;;11.70;7.45;;;29.40;99.90;;;;;;4827633;29;20557;-90
2021/07/18 11:47:19;;;;;;;19.35;8.65;;;30.90;99.90;;;;;;4820708;29;20200;-93
2021/07/18 11:49:48;;;;;;;16.33;7.80;;;30.90;99.90;;;;;;4821948;29;20261;-92
2021/07/18 11:52:16;;;;;;;11.50;7.35;;;30.70;99.90;;;;;;4819226;29;20188;-94
2021/07/18 11:54:43;;;;;;;12.45;7.88;;;30.80;99.90;;;;;;4829075;29;20190;-94
2021/07/18 11:57:18;;;;;;;18.80;7.65;;;30.70;99.90;;;;;;4823219;29;20195;-95
2021/07/18 11:59:53;;;;;;;16.38;7.28;;;31.10;99.90;;;;;;4966333;23;20249;-90
2021/07/18 12:10:21;;;;;;;17.35;7.35;;;31.90;99.90;;;;;;4939071;23;20242;-96
2021/07/18 12:12:48;;;;;;;17.63;8.45;;;32.00;99.90;;;;;;4928591;23;20313;-96
2021/07/18 12:15:14;;;;;;;16.42;9.13;;;;;;;;;;4907833;24;20275;-92
2021/07/18 12:17:40;;;;;;;11.18;7.80;;;31.90;99.90;;;;;;4848124;29;20186;-95
2021/07/18 12:20:07;;;;;;;11.77;7.47;;;31.90;99.90;;;;;;4847620;29;20648;-94
2021/07/18 12:22:33;;;;;;;11.75;7.28;;;;;;;;;;4866958;29;20206;-96
2021/07/18 12:24:59;;;;;;;15.43;8.23;;;;;;;;;;4853796;29;20190;-96
2021/07/18 12:27:27;;;;;;;23.27;8.02;;;31.60;99.90;;;;;;4872294;29;20196;-94
2021/07/18 12:30:05;;;;;;;16.15;8.07;;;31.90;99.90;;;;;;4907345;23;20324;-92
2021/07/18 12:40:31;;;;;;;18.92;7.63;;;31.90;99.90;;;;;;4775386;23;20269;-96
2021/07/18 12:42:58;;;;;;;14.60;8.95;;;;;;;;;;4883506;29;20264;-96
2021/07/18 12:45:24;;;;;;;10.30;7.13;;;;;;;;;;4859247;29;20250;-95
2021/07/18 12:48:00;;;;;;;15.88;7.45;;;31.70;99.90;;;;;;4863268;29;20193;-96
2021/07/18 12:50:41;;;;;;;10.77;7.20;;;31.50;99.90;;;;;;4865217;29;20328;-96
2021/07/18 12:53:15;;;;;;;17.00;8.77;;;31.10;99.90;;;;;;4979088;23;20257;-94
2021/07/18 12:55:48;;;;;;;10.60;7.28;;;31.60;99.90;;;;;;4835811;29;20257;-96